sensor_id;sensor_type;location;lat;lon;timestamp;P1;durP1;ratioP1;P2;durP2;ratioP2
56161;SDS011;42045;52.986;6.014;2023-02-03T00:01:11;7.70;;;2.00;;
56161;SDS011;42045;52.986;6.014;2023-02-03T00:03:37;10.10;;;2.92;;
56161;SDS011;42045;52.986;6.014;2023-02-03T00:06:03;10.05;;;2.33;;
56161;SDS011;42045;52.986;6.014;2023-02-03T00:08:29;15.15;;;3.60;;
56161;SDS011;42045;52.986;6.014;2023-02-03T00:10:55;12.55;;;2.10;;
56161;SDS011;42045;52.986;6.014;2023-02-03T00:13:22;9.15;;;2.80;;
56161;SDS011;42045;52.986;6.014;2023-02-03T00:15:50;7.43;;;1.73;;
56161;SDS011;42045;52.986;6.014;2023-02-03T00:18:15;7.47;;;2.28;;
56161;SDS011;42045;52.986;6.014;2023-02-03T00:20:41;5.82;;;1.95;;
56161;SDS011;42045;52.986;6.014;2023-02-03T00:23:08;13.10;;;2.83;;
56161;SDS011;42045;52.986;6.014;2023-02-03T00:25:35;12.35;;;2.70;;
56161;SDS011;42045;52.986;6.014;2023-02-03T00:28:03;14.23;;;3.28;;
56161;SDS011;42045;52.986;6.014;2023-02-03T00:30:35;9.35;;;2.22;;
56161;SDS011;42045;52.986;6.014;2023-02-03T00:33:03;7.43;;;2.20;;
56161;SDS011;42045;52.986;6.014;2023-02-03T00:35:29;10.10;;;2.33;;
56161;SDS011;42045;52.986;6.014;2023-02-03T00:37:55;16.45;;;3.85;;
56161;SDS011;42045;52.986;6.014;2023-02-03T00:40:23;16.90;;;4.38;;
56161;SDS011;42045;52.986;6.014;2023-02-03T00:42:50;16.88;;;3.30;;
56161;SDS011;42045;52.986;6.014;2023-02-03T00:45:16;11.63;;;3.28;;
56161;SDS011;42045;52.986;6.014;2023-02-03T00:47:43;13.70;;;3.45;;
56161;SDS011;42045;52.986;6.014;2023-02-03T00:50:09;10.27;;;3.38;;
56161;SDS011;42045;52.986;6.014;2023-02-03T00:52:35;12.65;;;2.97;;
56161;SDS011;42045;52.986;6.014;2023-02-03T00:55:01;7.43;;;2.15;;
56161;SDS011;42045;52.986;6.014;2023-02-03T00:57:27;11.98;;;2.63;;
56161;SDS011;42045;52.986;6.014;2023-02-03T00:59:56;11.35;;;2.70;;
56161;SDS011;42045;52.986;6.014;2023-02-03T01:02:22;9.40;;;2.45;;
56161;SDS011;42045;52.986;6.014;2023-02-03T01:04:48;12.55;;;3.40;;
56161;SDS011;42045;52.986;6.014;2023-02-03T01:07:27;12.40;;;3.97;;
56161;SDS011;42045;52.986;6.014;2023-02-03T01:09:56;10.60;;;2.63;;
56161;SDS011;42045;52.986;6.014;2023-02-03T01:12:21;12.15;;;2.90;;
56161;SDS011;42045;52.986;6.014;2023-02-03T01:14:47;11.50;;;2.92;;
56161;SDS011;42045;52.986;6.014;2023-02-03T01:17:13;9.93;;;2.97;;
56161;SDS011;42045;52.986;6.014;2023-02-03T01:19:39;10.35;;;2.90;;
56161;SDS011;42045;52.986;6.014;2023-02-03T01:22:06;15.07;;;3.97;;
56161;SDS011;42045;52.986;6.014;2023-02-03T01:24:31;11.40;;;2.95;;
56161;SDS011;42045;52.986;6.014;2023-02-03T01:26:57;12.13;;;2.95;;
56161;SDS011;42045;52.986;6.014;2023-02-03T01:29:23;13.23;;;2.45;;
56161;SDS011;42045;52.986;6.014;2023-02-03T01:31:48;12.35;;;3.05;;
56161;SDS011;42045;52.986;6.014;2023-02-03T01:34:14;10.88;;;3.05;;
56161;SDS011;42045;52.986;6.014;2023-02-03T01:36:41;12.27;;;2.83;;
56161;SDS011;42045;52.986;6.014;2023-02-03T01:39:06;15.77;;;3.55;;
56161;SDS011;42045;52.986;6.014;2023-02-03T01:41:33;14.00;;;3.95;;
56161;SDS011;42045;52.986;6.014;2023-02-03T01:44:01;12.23;;;2.67;;
56161;SDS011;42045;52.986;6.014;2023-02-03T01:46:47;12.52;;;3.42;;
56161;SDS011;42045;52.986;6.014;2023-02-03T01:49:25;15.48;;;2.67;;
56161;SDS011;42045;52.986;6.014;2023-02-03T01:51:53;16.50;;;3.47;;
56161;SDS011;42045;52.986;6.014;2023-02-03T01:54:30;17.48;;;3.20;;
56161;SDS011;42045;52.986;6.014;2023-02-03T01:56:59;14.38;;;3.38;;
56161;SDS011;42045;52.986;6.014;2023-02-03T01:59:28;14.25;;;3.25;;
56161;SDS011;42045;52.986;6.014;2023-02-03T02:01:55;19.48;;;3.45;;
56161;SDS011;42045;52.986;6.014;2023-02-03T02:04:26;10.60;;;2.72;;
56161;SDS011;42045;52.986;6.014;2023-02-03T02:06:58;13.15;;;3.28;;
56161;SDS011;42045;52.986;6.014;2023-02-03T02:09:24;14.98;;;2.85;;
56161;SDS011;42045;52.986;6.014;2023-02-03T02:11:51;10.30;;;2.40;;
56161;SDS011;42045;52.986;6.014;2023-02-03T02:14:17;13.40;;;3.17;;
56161;SDS011;42045;52.986;6.014;2023-02-03T02:33:01;9.18;;;2.65;;
56161;SDS011;42045;52.986;6.014;2023-02-03T02:41:17;11.38;;;3.08;;
56161;SDS011;42045;52.986;6.014;2023-02-03T02:43:56;13.68;;;3.40;;
56161;SDS011;42045;52.986;6.014;2023-02-03T02:46:34;16.42;;;3.83;;
56161;SDS011;42045;52.986;6.014;2023-02-03T02:49:12;15.27;;;3.45;;
56161;SDS011;42045;52.986;6.014;2023-02-03T02:51:45;16.85;;;3.90;;
56161;SDS011;42045;52.986;6.014;2023-02-03T02:54:16;12.68;;;3.10;;
56161;SDS011;42045;52.986;6.014;2023-02-03T02:56:47;17.37;;;3.70;;
56161;SDS011;42045;52.986;6.014;2023-02-03T02:59:17;13.65;;;3.00;;
56161;SDS011;42045;52.986;6.014;2023-02-03T03:01:43;12.15;;;3.20;;
56161;SDS011;42045;52.986;6.014;2023-02-03T03:04:09;9.13;;;3.28;;
56161;SDS011;42045;52.986;6.014;2023-02-03T03:06:49;14.35;;;4.60;;
56161;SDS011;42045;52.986;6.014;2023-02-03T03:09:26;18.20;;;3.72;;
56161;SDS011;42045;52.986;6.014;2023-02-03T03:12:10;18.58;;;4.20;;
56161;SDS011;42045;52.986;6.014;2023-02-03T03:14:44;10.25;;;3.13;;
56161;SDS011;42045;52.986;6.014;2023-02-03T03:17:20;13.10;;;2.97;;
56161;SDS011;42045;52.986;6.014;2023-02-03T03:19:54;11.77;;;3.35;;
56161;SDS011;42045;52.986;6.014;2023-02-03T03:22:26;15.52;;;3.70;;
56161;SDS011;42045;52.986;6.014;2023-02-03T03:24:57;13.68;;;3.15;;
56161;SDS011;42045;52.986;6.014;2023-02-03T03:27:31;17.10;;;3.05;;
56161;SDS011;42045;52.986;6.014;2023-02-03T03:30:01;12.30;;;2.60;;
56161;SDS011;42045;52.986;6.014;2023-02-03T03:32:33;12.63;;;3.47;;
56161;SDS011;42045;52.986;6.014;2023-02-03T03:34:59;15.10;;;2.83;;
56161;SDS011;42045;52.986;6.014;2023-02-03T03:37:34;20.77;;;3.80;;
56161;SDS011;42045;52.986;6.014;2023-02-03T03:45:41;10.68;;;2.58;;
56161;SDS011;42045;52.986;6.014;2023-02-03T03:48:31;14.95;;;3.85;;
56161;SDS011;42045;52.986;6.014;2023-02-03T03:51:07;17.75;;;2.63;;
56161;SDS011;42045;52.986;6.014;2023-02-03T03:53:42;11.30;;;3.10;;
56161;SDS011;42045;52.986;6.014;2023-02-03T03:56:11;9.48;;;3.17;;
56161;SDS011;42045;52.986;6.014;2023-02-03T03:58:41;11.10;;;3.10;;
56161;SDS011;42045;52.986;6.014;2023-02-03T04:01:10;17.92;;;4.00;;
56161;SDS011;42045;52.986;6.014;2023-02-03T04:03:39;11.75;;;3.33;;
56161;SDS011;42045;52.986;6.014;2023-02-03T04:06:09;13.82;;;3.08;;
56161;SDS011;42045;52.986;6.014;2023-02-03T04:08:36;16.35;;;3.67;;
56161;SDS011;42045;52.986;6.014;2023-02-03T04:11:03;15.82;;;3.63;;
56161;SDS011;42045;52.986;6.014;2023-02-03T04:13:30;12.43;;;3.22;;
56161;SDS011;42045;52.986;6.014;2023-02-03T04:15:56;13.13;;;2.80;;
56161;SDS011;42045;52.986;6.014;2023-02-03T04:18:21;12.98;;;3.35;;
56161;SDS011;42045;52.986;6.014;2023-02-03T04:20:48;19.13;;;2.58;;
56161;SDS011;42045;52.986;6.014;2023-02-03T04:23:13;21.38;;;4.50;;
56161;SDS011;42045;52.986;6.014;2023-02-03T04:25:39;14.00;;;2.88;;
56161;SDS011;42045;52.986;6.014;2023-02-03T04:28:05;13.40;;;4.10;;
56161;SDS011;42045;52.986;6.014;2023-02-03T04:30:30;11.70;;;3.15;;
56161;SDS011;42045;52.986;6.014;2023-02-03T04:32:59;12.40;;;3.40;;
56161;SDS011;42045;52.986;6.014;2023-02-03T04:35:25;12.00;;;3.05;;
56161;SDS011;42045;52.986;6.014;2023-02-03T04:37:51;17.38;;;3.22;;
56161;SDS011;42045;52.986;6.014;2023-02-03T04:40:16;13.23;;;3.75;;
56161;SDS011;42045;52.986;6.014;2023-02-03T04:42:42;15.52;;;2.92;;
56161;SDS011;42045;52.986;6.014;2023-02-03T04:45:09;15.63;;;3.50;;
56161;SDS011;42045;52.986;6.014;2023-02-03T04:47:36;19.30;;;3.47;;
56161;SDS011;42045;52.986;6.014;2023-02-03T04:50:05;12.52;;;3.53;;
56161;SDS011;42045;52.986;6.014;2023-02-03T04:52:34;11.35;;;2.92;;
56161;SDS011;42045;52.986;6.014;2023-02-03T04:54:59;12.63;;;3.25;;
56161;SDS011;42045;52.986;6.014;2023-02-03T04:57:25;12.23;;;3.10;;
56161;SDS011;42045;52.986;6.014;2023-02-03T04:59:51;15.95;;;3.90;;
56161;SDS011;42045;52.986;6.014;2023-02-03T05:02:17;13.48;;;3.22;;
56161;SDS011;42045;52.986;6.014;2023-02-03T05:04:42;12.88;;;3.25;;
56161;SDS011;42045;52.986;6.014;2023-02-03T05:07:08;16.92;;;3.30;;
56161;SDS011;42045;52.986;6.014;2023-02-03T05:09:34;12.27;;;2.85;;
56161;SDS011;42045;52.986;6.014;2023-02-03T05:11:59;12.88;;;3.45;;
56161;SDS011;42045;52.986;6.014;2023-02-03T05:14:25;16.15;;;3.35;;
56161;SDS011;42045;52.986;6.014;2023-02-03T05:16:51;14.23;;;3.95;;
56161;SDS011;42045;52.986;6.014;2023-02-03T05:19:17;13.23;;;3.25;;
56161;SDS011;42045;52.986;6.014;2023-02-03T05:21:42;17.33;;;4.15;;
56161;SDS011;42045;52.986;6.014;2023-02-03T05:24:08;13.63;;;3.00;;
56161;SDS011;42045;52.986;6.014;2023-02-03T05:26:34;8.13;;;3.15;;
56161;SDS011;42045;52.986;6.014;2023-02-03T05:29:00;15.20;;;3.95;;
56161;SDS011;42045;52.986;6.014;2023-02-03T05:31:26;15.30;;;3.97;;
56161;SDS011;42045;52.986;6.014;2023-02-03T05:33:52;17.42;;;3.20;;
56161;SDS011;42045;52.986;6.014;2023-02-03T05:36:18;14.77;;;3.83;;
56161;SDS011;42045;52.986;6.014;2023-02-03T05:38:43;14.43;;;3.17;;
56161;SDS011;42045;52.986;6.014;2023-02-03T05:41:10;15.43;;;3.88;;
56161;SDS011;42045;52.986;6.014;2023-02-03T05:43:55;18.25;;;3.75;;
56161;SDS011;42045;52.986;6.014;2023-02-03T05:46:21;12.32;;;3.30;;
56161;SDS011;42045;52.986;6.014;2023-02-03T05:48:47;15.38;;;3.50;;
56161;SDS011;42045;52.986;6.014;2023-02-03T05:51:12;11.95;;;3.22;;
56161;SDS011;42045;52.986;6.014;2023-02-03T05:53:38;15.98;;;3.40;;
56161;SDS011;42045;52.986;6.014;2023-02-03T05:56:04;13.75;;;3.33;;
56161;SDS011;42045;52.986;6.014;2023-02-03T05:58:30;14.13;;;4.10;;
56161;SDS011;42045;52.986;6.014;2023-02-03T06:00:55;15.85;;;3.70;;
56161;SDS011;42045;52.986;6.014;2023-02-03T06:03:21;19.02;;;4.05;;
56161;SDS011;42045;52.986;6.014;2023-02-03T06:05:47;16.40;;;3.85;;
56161;SDS011;42045;52.986;6.014;2023-02-03T06:08:14;13.50;;;3.90;;
56161;SDS011;42045;52.986;6.014;2023-02-03T06:10:39;15.90;;;4.68;;
56161;SDS011;42045;52.986;6.014;2023-02-03T06:13:09;17.33;;;3.47;;
56161;SDS011;42045;52.986;6.014;2023-02-03T06:15:36;14.90;;;4.07;;
56161;SDS011;42045;52.986;6.014;2023-02-03T06:18:02;13.50;;;3.83;;
56161;SDS011;42045;52.986;6.014;2023-02-03T06:20:28;15.65;;;3.78;;
56161;SDS011;42045;52.986;6.014;2023-02-03T06:22:53;15.77;;;3.95;;
56161;SDS011;42045;52.986;6.014;2023-02-03T06:25:19;16.42;;;3.53;;
56161;SDS011;42045;52.986;6.014;2023-02-03T06:27:45;19.00;;;4.57;;
56161;SDS011;42045;52.986;6.014;2023-02-03T06:30:10;17.33;;;4.55;;
56161;SDS011;42045;52.986;6.014;2023-02-03T06:32:36;22.90;;;4.03;;
56161;SDS011;42045;52.986;6.014;2023-02-03T06:35:02;19.73;;;5.70;;
56161;SDS011;42045;52.986;6.014;2023-02-03T06:37:28;14.23;;;4.45;;
56161;SDS011;42045;52.986;6.014;2023-02-03T06:39:54;19.48;;;4.55;;
56161;SDS011;42045;52.986;6.014;2023-02-03T06:42:20;20.05;;;4.10;;
56161;SDS011;42045;52.986;6.014;2023-02-03T06:44:49;19.67;;;4.10;;
56161;SDS011;42045;52.986;6.014;2023-02-03T06:47:15;17.17;;;4.35;;
56161;SDS011;42045;52.986;6.014;2023-02-03T06:49:43;15.10;;;3.70;;
56161;SDS011;42045;52.986;6.014;2023-02-03T06:52:09;17.02;;;4.28;;
56161;SDS011;42045;52.986;6.014;2023-02-03T06:54:35;17.42;;;4.18;;
56161;SDS011;42045;52.986;6.014;2023-02-03T06:57:06;17.30;;;4.18;;
56161;SDS011;42045;52.986;6.014;2023-02-03T06:59:32;23.55;;;5.20;;
56161;SDS011;42045;52.986;6.014;2023-02-03T07:01:58;17.98;;;4.43;;
56161;SDS011;42045;52.986;6.014;2023-02-03T07:04:23;20.95;;;4.70;;
56161;SDS011;42045;52.986;6.014;2023-02-03T07:06:52;20.25;;;4.35;;
56161;SDS011;42045;52.986;6.014;2023-02-03T07:09:18;20.73;;;5.70;;
56161;SDS011;42045;52.986;6.014;2023-02-03T07:11:43;22.75;;;4.32;;
56161;SDS011;42045;52.986;6.014;2023-02-03T07:14:09;23.08;;;4.75;;
56161;SDS011;42045;52.986;6.014;2023-02-03T07:16:35;18.02;;;4.45;;
56161;SDS011;42045;52.986;6.014;2023-02-03T07:19:01;21.27;;;4.80;;
56161;SDS011;42045;52.986;6.014;2023-02-03T07:21:29;14.88;;;4.95;;
56161;SDS011;42045;52.986;6.014;2023-02-03T07:23:55;21.67;;;5.55;;
56161;SDS011;42045;52.986;6.014;2023-02-03T07:26:21;18.92;;;4.93;;
56161;SDS011;42045;52.986;6.014;2023-02-03T07:28:48;20.63;;;4.88;;
56161;SDS011;42045;52.986;6.014;2023-02-03T07:31:14;17.45;;;5.50;;
56161;SDS011;42045;52.986;6.014;2023-02-03T07:33:40;22.30;;;5.80;;
56161;SDS011;42045;52.986;6.014;2023-02-03T07:36:05;19.67;;;4.55;;
56161;SDS011;42045;52.986;6.014;2023-02-03T07:38:32;27.50;;;5.90;;
56161;SDS011;42045;52.986;6.014;2023-02-03T07:41:07;20.58;;;5.38;;
56161;SDS011;42045;52.986;6.014;2023-02-03T07:43:36;21.75;;;4.72;;
56161;SDS011;42045;52.986;6.014;2023-02-03T07:46:02;17.48;;;4.97;;
56161;SDS011;42045;52.986;6.014;2023-02-03T07:48:28;21.45;;;5.80;;
56161;SDS011;42045;52.986;6.014;2023-02-03T07:50:54;18.75;;;5.22;;
56161;SDS011;42045;52.986;6.014;2023-02-03T07:53:25;15.70;;;4.35;;
56161;SDS011;42045;52.986;6.014;2023-02-03T07:55:51;18.48;;;4.28;;
56161;SDS011;42045;52.986;6.014;2023-02-03T07:58:17;16.20;;;4.20;;
56161;SDS011;42045;52.986;6.014;2023-02-03T08:00:43;15.45;;;4.65;;
56161;SDS011;42045;52.986;6.014;2023-02-03T08:03:09;21.55;;;5.28;;
56161;SDS011;42045;52.986;6.014;2023-02-03T08:05:34;24.65;;;5.40;;
56161;SDS011;42045;52.986;6.014;2023-02-03T08:08:00;20.85;;;5.45;;
56161;SDS011;42045;52.986;6.014;2023-02-03T08:10:29;19.42;;;5.47;;
56161;SDS011;42045;52.986;6.014;2023-02-03T08:12:54;23.95;;;5.07;;
56161;SDS011;42045;52.986;6.014;2023-02-03T08:15:20;19.30;;;4.95;;
56161;SDS011;42045;52.986;6.014;2023-02-03T08:17:49;22.08;;;5.03;;
56161;SDS011;42045;52.986;6.014;2023-02-03T08:20:15;18.45;;;5.07;;
56161;SDS011;42045;52.986;6.014;2023-02-03T08:22:41;22.75;;;5.10;;
56161;SDS011;42045;52.986;6.014;2023-02-03T08:25:09;19.40;;;4.65;;
56161;SDS011;42045;52.986;6.014;2023-02-03T08:27:36;18.17;;;5.22;;
56161;SDS011;42045;52.986;6.014;2023-02-03T08:30:03;18.02;;;5.10;;
56161;SDS011;42045;52.986;6.014;2023-02-03T08:32:34;19.58;;;5.85;;
56161;SDS011;42045;52.986;6.014;2023-02-03T08:35:00;22.98;;;4.78;;
56161;SDS011;42045;52.986;6.014;2023-02-03T08:37:25;20.50;;;4.80;;
56161;SDS011;42045;52.986;6.014;2023-02-03T08:39:52;21.23;;;4.60;;
56161;SDS011;42045;52.986;6.014;2023-02-03T08:42:18;21.00;;;5.03;;
56161;SDS011;42045;52.986;6.014;2023-02-03T08:44:44;23.60;;;4.88;;
56161;SDS011;42045;52.986;6.014;2023-02-03T08:47:10;18.80;;;4.47;;
56161;SDS011;42045;52.986;6.014;2023-02-03T08:49:36;20.10;;;4.25;;
56161;SDS011;42045;52.986;6.014;2023-02-03T08:52:04;21.58;;;5.38;;
56161;SDS011;42045;52.986;6.014;2023-02-03T08:54:31;21.98;;;5.05;;
56161;SDS011;42045;52.986;6.014;2023-02-03T08:56:57;16.98;;;4.70;;
56161;SDS011;42045;52.986;6.014;2023-02-03T08:59:23;20.55;;;5.10;;
56161;SDS011;42045;52.986;6.014;2023-02-03T09:01:51;27.67;;;5.18;;
56161;SDS011;42045;52.986;6.014;2023-02-03T09:04:17;23.00;;;5.38;;
56161;SDS011;42045;52.986;6.014;2023-02-03T09:06:47;20.27;;;4.97;;
56161;SDS011;42045;52.986;6.014;2023-02-03T09:09:13;22.77;;;4.93;;
56161;SDS011;42045;52.986;6.014;2023-02-03T09:11:39;25.33;;;5.35;;
56161;SDS011;42045;52.986;6.014;2023-02-03T09:14:06;23.15;;;5.10;;
56161;SDS011;42045;52.986;6.014;2023-02-03T09:16:32;25.92;;;6.88;;
56161;SDS011;42045;52.986;6.014;2023-02-03T09:18:58;27.20;;;5.43;;
56161;SDS011;42045;52.986;6.014;2023-02-03T09:21:24;25.08;;;6.10;;
56161;SDS011;42045;52.986;6.014;2023-02-03T09:23:50;24.42;;;5.88;;
56161;SDS011;42045;52.986;6.014;2023-02-03T09:26:15;33.45;;;5.47;;
56161;SDS011;42045;52.986;6.014;2023-02-03T09:28:41;25.45;;;5.95;;
56161;SDS011;42045;52.986;6.014;2023-02-03T09:31:08;30.10;;;5.82;;
56161;SDS011;42045;52.986;6.014;2023-02-03T09:33:36;26.98;;;6.22;;
56161;SDS011;42045;52.986;6.014;2023-02-03T09:36:03;29.38;;;6.72;;
56161;SDS011;42045;52.986;6.014;2023-02-03T09:38:30;25.25;;;5.15;;
56161;SDS011;42045;52.986;6.014;2023-02-03T09:40:58;34.05;;;6.47;;
56161;SDS011;42045;52.986;6.014;2023-02-03T09:43:32;22.95;;;6.38;;
56161;SDS011;42045;52.986;6.014;2023-02-03T09:46:15;26.48;;;5.93;;
56161;SDS011;42045;52.986;6.014;2023-02-03T09:48:46;28.92;;;7.13;;
56161;SDS011;42045;52.986;6.014;2023-02-03T09:51:19;29.25;;;7.22;;
56161;SDS011;42045;52.986;6.014;2023-02-03T09:56:30;33.33;;;6.88;;
56161;SDS011;42045;52.986;6.014;2023-02-03T09:58:58;28.90;;;6.55;;
56161;SDS011;42045;52.986;6.014;2023-02-03T10:01:27;24.67;;;6.50;;
56161;SDS011;42045;52.986;6.014;2023-02-03T10:04:01;34.25;;;7.38;;
56161;SDS011;42045;52.986;6.014;2023-02-03T10:06:40;25.90;;;7.05;;
56161;SDS011;42045;52.986;6.014;2023-02-03T10:09:18;35.65;;;6.70;;
56161;SDS011;42045;52.986;6.014;2023-02-03T10:17:55;31.63;;;6.47;;
56161;SDS011;42045;52.986;6.014;2023-02-03T10:20:33;31.73;;;7.43;;
56161;SDS011;42045;52.986;6.014;2023-02-03T10:23:06;30.88;;;6.85;;
56161;SDS011;42045;52.986;6.014;2023-02-03T10:25:58;32.90;;;7.95;;
56161;SDS011;42045;52.986;6.014;2023-02-03T10:28:27;34.05;;;6.47;;
56161;SDS011;42045;52.986;6.014;2023-02-03T10:30:56;29.67;;;7.75;;
56161;SDS011;42045;52.986;6.014;2023-02-03T10:33:30;29.85;;;6.65;;
56161;SDS011;42045;52.986;6.014;2023-02-03T10:36:11;29.50;;;6.45;;
56161;SDS011;42045;52.986;6.014;2023-02-03T10:38:45;36.20;;;8.85;;
56161;SDS011;42045;52.986;6.014;2023-02-03T10:41:17;32.70;;;7.28;;
56161;SDS011;42045;52.986;6.014;2023-02-03T10:43:45;38.40;;;7.22;;
56161;SDS011;42045;52.986;6.014;2023-02-03T10:46:11;32.33;;;7.10;;
56161;SDS011;42045;52.986;6.014;2023-02-03T10:48:41;38.83;;;8.40;;
56161;SDS011;42045;52.986;6.014;2023-02-03T10:57:04;32.00;;;8.00;;
56161;SDS011;42045;52.986;6.014;2023-02-03T10:59:42;32.03;;;6.97;;
56161;SDS011;42045;52.986;6.014;2023-02-03T11:07:43;43.33;;;7.95;;
56161;SDS011;42045;52.986;6.014;2023-02-03T11:15:53;37.42;;;7.60;;
56161;SDS011;42045;52.986;6.014;2023-02-03T11:21:48;37.42;;;7.70;;
56161;SDS011;42045;52.986;6.014;2023-02-03T11:24:32;41.10;;;8.88;;
56161;SDS011;42045;52.986;6.014;2023-02-03T11:27:10;35.50;;;9.20;;
56161;SDS011;42045;52.986;6.014;2023-02-03T11:29:41;45.50;;;8.27;;
56161;SDS011;42045;52.986;6.014;2023-02-03T11:32:21;35.17;;;7.70;;
56161;SDS011;42045;52.986;6.014;2023-02-03T11:37:32;38.53;;;8.40;;
56161;SDS011;42045;52.986;6.014;2023-02-03T11:42:38;31.33;;;7.80;;
56161;SDS011;42045;52.986;6.014;2023-02-03T11:53:26;40.80;;;7.70;;
56161;SDS011;42045;52.986;6.014;2023-02-03T12:04:50;41.45;;;11.43;;
56161;SDS011;42045;52.986;6.014;2023-02-03T12:21:54;40.28;;;13.23;;
56161;SDS011;42045;52.986;6.014;2023-02-03T12:24:40;49.45;;;21.35;;
56161;SDS011;42045;52.986;6.014;2023-02-03T12:27:29;41.97;;;11.40;;
56161;SDS011;42045;52.986;6.014;2023-02-03T12:32:56;42.70;;;12.32;;
56161;SDS011;42045;52.986;6.014;2023-02-03T12:35:33;39.10;;;11.18;;
56161;SDS011;42045;52.986;6.014;2023-02-03T12:38:09;56.78;;;17.10;;
56161;SDS011;42045;52.986;6.014;2023-02-03T12:40:58;45.70;;;10.18;;
56161;SDS011;42045;52.986;6.014;2023-02-03T12:46:12;53.55;;;23.13;;
56161;SDS011;42045;52.986;6.014;2023-02-03T12:51:45;51.13;;;14.85;;
56161;SDS011;42045;52.986;6.014;2023-02-03T12:56:59;66.38;;;24.25;;
56161;SDS011;42045;52.986;6.014;2023-02-03T12:59:38;68.60;;;19.65;;
56161;SDS011;42045;52.986;6.014;2023-02-03T13:02:25;53.70;;;10.32;;
56161;SDS011;42045;52.986;6.014;2023-02-03T13:05:01;47.92;;;12.82;;
56161;SDS011;42045;52.986;6.014;2023-02-03T13:07:46;60.00;;;15.88;;
56161;SDS011;42045;52.986;6.014;2023-02-03T13:10:32;46.22;;;14.43;;
56161;SDS011;42045;52.986;6.014;2023-02-03T13:13:07;69.65;;;23.45;;
56161;SDS011;42045;52.986;6.014;2023-02-03T13:15:39;42.35;;;9.75;;
56161;SDS011;42045;52.986;6.014;2023-02-03T13:20:53;55.10;;;11.95;;
56161;SDS011;42045;52.986;6.014;2023-02-03T13:23:19;36.35;;;8.55;;
56161;SDS011;42045;52.986;6.014;2023-02-03T13:36:32;49.65;;;15.68;;
56161;SDS011;42045;52.986;6.014;2023-02-03T13:42:25;76.07;;;37.80;;
56161;SDS011;42045;52.986;6.014;2023-02-03T13:44:55;43.72;;;12.80;;
56161;SDS011;42045;52.986;6.014;2023-02-03T13:47:27;40.40;;;12.68;;
56161;SDS011;42045;52.986;6.014;2023-02-03T13:49:56;47.40;;;12.48;;
56161;SDS011;42045;52.986;6.014;2023-02-03T13:52:26;46.80;;;10.15;;
56161;SDS011;42045;52.986;6.014;2023-02-03T13:54:58;39.88;;;8.55;;
56161;SDS011;42045;52.986;6.014;2023-02-03T13:57:32;44.92;;;9.32;;
56161;SDS011;42045;52.986;6.014;2023-02-03T14:00:00;43.85;;;10.10;;
56161;SDS011;42045;52.986;6.014;2023-02-03T14:02:29;47.22;;;9.63;;
56161;SDS011;42045;52.986;6.014;2023-02-03T14:05:06;43.88;;;9.60;;
56161;SDS011;42045;52.986;6.014;2023-02-03T14:13:52;41.38;;;7.45;;
56161;SDS011;42045;52.986;6.014;2023-02-03T14:16:22;37.17;;;8.07;;
56161;SDS011;42045;52.986;6.014;2023-02-03T14:18:49;37.95;;;9.30;;
56161;SDS011;42045;52.986;6.014;2023-02-03T14:21:18;36.03;;;7.60;;
56161;SDS011;42045;52.986;6.014;2023-02-03T14:23:56;30.67;;;6.78;;
56161;SDS011;42045;52.986;6.014;2023-02-03T14:26:31;40.10;;;7.15;;
56161;SDS011;42045;52.986;6.014;2023-02-03T14:29:34;33.05;;;7.30;;
56161;SDS011;42045;52.986;6.014;2023-02-03T14:32:04;28.00;;;5.60;;
56161;SDS011;42045;52.986;6.014;2023-02-03T14:40:05;39.88;;;6.93;;
56161;SDS011;42045;52.986;6.014;2023-02-03T14:48:04;29.50;;;8.40;;
56161;SDS011;42045;52.986;6.014;2023-02-03T14:53:50;31.38;;;6.80;;
56161;SDS011;42045;52.986;6.014;2023-02-03T14:56:40;29.17;;;6.18;;
56161;SDS011;42045;52.986;6.014;2023-02-03T14:59:47;30.92;;;6.85;;
56161;SDS011;42045;52.986;6.014;2023-02-03T15:02:23;30.63;;;7.15;;
56161;SDS011;42045;52.986;6.014;2023-02-03T15:10:14;36.78;;;8.60;;
56161;SDS011;42045;52.986;6.014;2023-02-03T15:12:47;39.45;;;10.00;;
56161;SDS011;42045;52.986;6.014;2023-02-03T15:17:48;41.17;;;12.82;;
56161;SDS011;42045;52.986;6.014;2023-02-03T15:20:22;49.42;;;10.30;;
56161;SDS011;42045;52.986;6.014;2023-02-03T15:23:16;50.58;;;12.98;;
56161;SDS011;42045;52.986;6.014;2023-02-03T15:25:42;41.13;;;10.15;;
56161;SDS011;42045;52.986;6.014;2023-02-03T15:28:12;43.70;;;12.10;;
56161;SDS011;42045;52.986;6.014;2023-02-03T15:30:43;43.47;;;10.23;;
56161;SDS011;42045;52.986;6.014;2023-02-03T15:33:14;50.17;;;10.60;;
56161;SDS011;42045;52.986;6.014;2023-02-03T15:35:42;42.40;;;9.93;;
56161;SDS011;42045;52.986;6.014;2023-02-03T15:38:12;42.75;;;9.32;;
56161;SDS011;42045;52.986;6.014;2023-02-03T15:40:51;45.85;;;11.05;;
56161;SDS011;42045;52.986;6.014;2023-02-03T15:43:31;49.17;;;11.02;;
56161;SDS011;42045;52.986;6.014;2023-02-03T15:48:49;53.17;;;12.68;;
56161;SDS011;42045;52.986;6.014;2023-02-03T15:54:16;42.63;;;10.02;;
56161;SDS011;42045;52.986;6.014;2023-02-03T15:56:46;54.13;;;12.68;;
56161;SDS011;42045;52.986;6.014;2023-02-03T15:59:20;54.70;;;17.95;;
56161;SDS011;42045;52.986;6.014;2023-02-03T16:02:06;50.55;;;8.85;;
56161;SDS011;42045;52.986;6.014;2023-02-03T16:05:02;42.72;;;10.65;;
56161;SDS011;42045;52.986;6.014;2023-02-03T16:07:30;46.20;;;12.75;;
56161;SDS011;42045;52.986;6.014;2023-02-03T16:09:56;44.95;;;9.35;;
56161;SDS011;42045;52.986;6.014;2023-02-03T16:14:54;45.10;;;11.45;;
56161;SDS011;42045;52.986;6.014;2023-02-03T16:17:27;39.75;;;13.65;;
56161;SDS011;42045;52.986;6.014;2023-02-03T16:22:40;54.65;;;27.33;;
56161;SDS011;42045;52.986;6.014;2023-02-03T16:25:16;59.90;;;34.83;;
56161;SDS011;42045;52.986;6.014;2023-02-03T16:27:44;55.47;;;21.52;;
56161;SDS011;42045;52.986;6.014;2023-02-03T16:30:38;51.90;;;20.13;;
56161;SDS011;42045;52.986;6.014;2023-02-03T16:33:25;43.55;;;8.80;;
56161;SDS011;42045;52.986;6.014;2023-02-03T16:36:15;44.60;;;10.02;;
56161;SDS011;42045;52.986;6.014;2023-02-03T16:39:07;45.70;;;11.32;;
56161;SDS011;42045;52.986;6.014;2023-02-03T16:41:54;40.90;;;9.70;;
56161;SDS011;42045;52.986;6.014;2023-02-03T16:44:41;37.35;;;9.43;;
56161;SDS011;42045;52.986;6.014;2023-02-03T16:47:26;48.08;;;11.13;;
56161;SDS011;42045;52.986;6.014;2023-02-03T16:50:13;42.05;;;8.18;;
56161;SDS011;42045;52.986;6.014;2023-02-03T16:52:57;40.83;;;8.13;;
56161;SDS011;42045;52.986;6.014;2023-02-03T16:55:23;52.75;;;10.63;;
56161;SDS011;42045;52.986;6.014;2023-02-03T16:57:49;47.28;;;9.55;;
56161;SDS011;42045;52.986;6.014;2023-02-03T17:00:15;42.85;;;9.80;;
56161;SDS011;42045;52.986;6.014;2023-02-03T17:02:42;47.63;;;9.73;;
56161;SDS011;42045;52.986;6.014;2023-02-03T17:05:07;49.67;;;9.77;;
56161;SDS011;42045;52.986;6.014;2023-02-03T17:07:36;51.72;;;9.27;;
56161;SDS011;42045;52.986;6.014;2023-02-03T17:10:02;50.55;;;10.00;;
56161;SDS011;42045;52.986;6.014;2023-02-03T17:12:28;45.17;;;9.77;;
56161;SDS011;42045;52.986;6.014;2023-02-03T17:14:55;54.03;;;10.75;;
56161;SDS011;42045;52.986;6.014;2023-02-03T17:17:25;53.63;;;9.70;;
56161;SDS011;42045;52.986;6.014;2023-02-03T17:19:51;41.35;;;9.15;;
56161;SDS011;42045;52.986;6.014;2023-02-03T17:22:17;45.60;;;10.95;;
56161;SDS011;42045;52.986;6.014;2023-02-03T17:24:42;55.05;;;10.43;;
56161;SDS011;42045;52.986;6.014;2023-02-03T17:27:09;52.63;;;10.43;;
56161;SDS011;42045;52.986;6.014;2023-02-03T17:29:35;50.83;;;11.18;;
56161;SDS011;42045;52.986;6.014;2023-02-03T17:32:02;43.42;;;10.75;;